createdAt,value
2023-12-24T00:02:14.402Z,9.10
2023-12-24T00:04:43.289Z,7.50
2023-12-24T00:07:10.970Z,7.50
2023-12-24T00:09:38.607Z,9.57
2023-12-24T00:12:07.420Z,9.43
2023-12-24T00:14:35.415Z,8.75
2023-12-24T00:17:04.837Z,7.55
2023-12-24T00:19:32.467Z,9.90
2023-12-24T00:22:00.220Z,7.22
2023-12-24T00:24:27.878Z,8.67
2023-12-24T00:26:55.533Z,5.60
2023-12-24T00:29:23.154Z,7.40
2023-12-24T00:31:50.746Z,6.28
2023-12-24T00:34:19.769Z,6.20
2023-12-24T00:36:47.734Z,6.07
2023-12-24T00:39:15.293Z,6.10
2023-12-24T00:41:42.928Z,5.65
2023-12-24T00:44:10.585Z,5.88
2023-12-24T00:46:37.233Z,6.32
2023-12-24T00:49:06.194Z,6.77
2023-12-24T00:51:35.300Z,7.10
2023-12-24T00:54:02.891Z,6.78
2023-12-24T00:56:30.535Z,6.68
2023-12-24T00:58:58.245Z,6.28
2023-12-24T01:01:25.961Z,6.70
2023-12-24T01:03:53.985Z,6.80
2023-12-24T01:06:21.735Z,6.47
2023-12-24T01:08:50.707Z,6.15
2023-12-24T01:11:18.428Z,6.13
2023-12-24T01:13:46.073Z,6.27
2023-12-24T01:16:13.627Z,7.68
2023-12-24T01:18:41.624Z,5.88
2023-12-24T01:21:09.342Z,6.35
2023-12-24T01:23:37.260Z,6.40
2023-12-24T01:26:06.885Z,6.77
2023-12-24T01:28:34.568Z,6.25
2023-12-24T01:31:02.420Z,7.35
2023-12-24T01:33:30.136Z,6.85
2023-12-24T01:35:57.758Z,7.15
2023-12-24T01:38:25.494Z,7.50
2023-12-24T01:40:53.146Z,7.55
2023-12-24T01:43:22.101Z,8.18
2023-12-24T01:45:50.064Z,7.50
2023-12-24T01:48:18.535Z,7.63
2023-12-24T01:50:48.010Z,7.93
2023-12-24T01:53:18.495Z,9.73
2023-12-24T01:55:49.836Z,10.40
2023-12-24T01:58:17.600Z,10.52
2023-12-24T02:00:48.162Z,10.50
2023-12-24T02:03:17.130Z,10.17
2023-12-24T02:05:47.303Z,10.00
2023-12-24T02:08:15.996Z,11.07
2023-12-24T02:10:44.452Z,11.77
2023-12-24T02:13:13.115Z,12.77
2023-12-24T02:15:40.777Z,11.00
2023-12-24T02:18:10.244Z,14.15
2023-12-24T02:20:37.940Z,12.88
2023-12-24T02:23:07.096Z,11.13
2023-12-24T02:25:34.765Z,11.23
2023-12-24T02:28:08.330Z,11.27
2023-12-24T02:30:40.327Z,9.98
2023-12-24T02:33:10.315Z,9.18
2023-12-24T02:35:39.875Z,7.07
2023-12-24T02:38:09.072Z,6.10
2023-12-24T02:40:36.646Z,4.60
2023-12-24T02:43:04.563Z,4.07
2023-12-24T02:45:32.140Z,3.60
2023-12-24T02:47:59.919Z,3.40
2023-12-24T02:50:27.637Z,3.80
2023-12-24T02:52:55.415Z,3.50
2023-12-24T02:55:26.184Z,3.20
2023-12-24T02:57:53.832Z,3.33
2023-12-24T03:00:21.606Z,3.80
2023-12-24T03:02:49.406Z,3.65
2023-12-24T03:05:17.335Z,3.80
2023-12-24T03:07:45.073Z,3.15
2023-12-24T03:10:12.698Z,4.63
2023-12-24T03:12:41.622Z,3.35
2023-12-24T03:15:12.145Z,3.95
2023-12-24T03:17:40.072Z,3.40
2023-12-24T03:20:09.975Z,3.60
2023-12-24T03:22:37.579Z,3.00
2023-12-24T03:25:05.944Z,3.30
2023-12-24T03:27:33.509Z,3.30
2023-12-24T03:30:03.971Z,3.03
2023-12-24T03:32:31.855Z,3.35
2023-12-24T03:35:00.977Z,3.17
2023-12-24T03:37:28.670Z,3.10
2023-12-24T03:39:56.311Z,3.20
2023-12-24T03:42:23.882Z,3.40
2023-12-24T03:44:51.567Z,3.25
2023-12-24T03:47:20.580Z,2.95
2023-12-24T03:49:48.228Z,3.75
2023-12-24T03:52:15.895Z,3.03
2023-12-24T03:54:43.786Z,3.30
2023-12-24T03:57:11.402Z,4.20
2023-12-24T03:59:40.236Z,3.30
2023-12-24T04:02:07.915Z,2.90
2023-12-24T04:04:35.883Z,3.38
2023-12-24T04:07:04.288Z,3.73
2023-12-24T04:09:32.862Z,3.55
2023-12-24T04:12:00.728Z,3.70
2023-12-24T04:14:28.321Z,3.15
2023-12-24T04:16:55.946Z,3.42
2023-12-24T04:19:23.657Z,3.50
2023-12-24T04:21:52.653Z,3.50
2023-12-24T04:24:20.278Z,3.80
2023-12-24T04:26:47.879Z,3.88
2023-12-24T04:29:16.081Z,3.20
2023-12-24T04:31:44.135Z,3.10
2023-12-24T04:34:12.454Z,4.38
2023-12-24T04:36:40.110Z,3.20
2023-12-24T04:39:09.146Z,3.45
2023-12-24T04:41:37.861Z,3.10
2023-12-24T04:44:06.337Z,3.87
2023-12-24T04:46:34.025Z,4.20
2023-12-24T04:49:01.638Z,4.10
2023-12-24T04:51:29.295Z,3.40
2023-12-24T04:53:56.901Z,3.22
2023-12-24T04:56:25.962Z,3.10
2023-12-24T04:58:54.579Z,3.30
2023-12-24T05:01:25.478Z,3.00
2023-12-24T05:03:53.588Z,4.22
2023-12-24T05:06:22.288Z,3.30
2023-12-24T05:08:50.006Z,3.30
2023-12-24T05:11:17.650Z,4.38
2023-12-24T05:13:46.611Z,3.20
2023-12-24T05:16:14.644Z,4.00
2023-12-24T05:18:42.372Z,3.20
2023-12-24T05:21:10.097Z,3.17
2023-12-24T05:23:37.789Z,3.33
2023-12-24T05:26:05.578Z,3.38
2023-12-24T05:28:33.195Z,3.58
2023-12-24T05:31:02.348Z,3.20
2023-12-24T05:33:30.384Z,4.23
2023-12-24T05:35:58.124Z,3.88
2023-12-24T05:38:25.945Z,3.30
2023-12-24T05:40:53.733Z,3.10
2023-12-24T05:43:21.348Z,4.38
2023-12-24T05:45:49.220Z,3.70
2023-12-24T05:48:18.371Z,3.10
2023-12-24T05:50:46.127Z,3.22
2023-12-24T05:53:13.875Z,3.20
2023-12-24T05:55:42.045Z,3.15
2023-12-24T05:58:09.673Z,3.20
2023-12-24T06:00:37.547Z,3.72
2023-12-24T06:03:05.644Z,3.05
2023-12-24T06:05:34.690Z,3.85
2023-12-24T06:08:02.432Z,3.10
2023-12-24T06:10:30.048Z,3.10
2023-12-24T06:12:57.665Z,3.30
2023-12-24T06:15:25.213Z,3.28
2023-12-24T06:17:52.960Z,3.08
2023-12-24T06:20:20.951Z,3.50
2023-12-24T06:22:50.296Z,4.27
2023-12-24T06:25:19.208Z,4.07
2023-12-24T06:27:46.905Z,3.40
2023-12-24T06:30:15.305Z,4.20
2023-12-24T06:32:45.130Z,3.60
2023-12-24T06:35:12.930Z,3.60
2023-12-24T06:37:40.631Z,4.10
2023-12-24T06:40:11.274Z,3.60
2023-12-24T06:42:38.948Z,4.22
2023-12-24T06:45:07.686Z,5.10
2023-12-24T06:47:35.439Z,3.67
2023-12-24T06:50:03.780Z,3.72
2023-12-24T06:52:31.391Z,3.60
2023-12-24T06:54:59.048Z,4.50
2023-12-24T06:57:27.937Z,3.67
2023-12-24T06:59:56.092Z,3.40
2023-12-24T07:02:23.757Z,3.42
2023-12-24T07:04:51.424Z,4.00
2023-12-24T07:07:19.030Z,3.63
2023-12-24T07:09:47.587Z,3.90
2023-12-24T07:12:15.141Z,4.07
2023-12-24T07:14:44.142Z,3.53
2023-12-24T07:17:11.807Z,3.72
2023-12-24T07:19:39.425Z,4.88
2023-12-24T07:22:07.005Z,4.85
2023-12-24T07:24:34.636Z,4.20
2023-12-24T07:27:02.239Z,4.60
2023-12-24T07:29:29.844Z,3.97
2023-12-24T07:31:58.797Z,5.47
2023-12-24T07:34:26.505Z,5.78
2023-12-24T07:36:54.202Z,4.13
2023-12-24T07:39:21.834Z,3.80
2023-12-24T07:41:49.488Z,4.15
2023-12-24T07:44:17.794Z,4.05
2023-12-24T07:46:46.245Z,3.80
2023-12-24T07:49:15.288Z,3.87
2023-12-24T07:51:43.182Z,4.25
2023-12-24T07:54:10.806Z,4.68
2023-12-24T07:56:38.477Z,3.90
2023-12-24T07:59:06.168Z,4.30
2023-12-24T08:01:33.808Z,4.00
2023-12-24T08:04:01.434Z,4.47
2023-12-24T08:06:30.489Z,3.90
2023-12-24T08:08:58.336Z,6.32
2023-12-24T08:11:26.095Z,4.85
2023-12-24T08:13:55.195Z,11.73
2023-12-24T08:16:22.864Z,6.22
2023-12-24T08:18:50.611Z,4.57
2023-12-24T08:21:18.349Z,5.80
2023-12-24T08:23:47.376Z,4.82
2023-12-24T08:26:15.320Z,5.70
2023-12-24T08:28:43.109Z,4.38
2023-12-24T08:31:11.602Z,7.10
2023-12-24T08:33:39.579Z,4.50
2023-12-24T08:36:09.118Z,4.28
2023-12-24T08:38:36.921Z,6.20
2023-12-24T08:41:06.038Z,4.47
2023-12-24T08:43:34.126Z,3.92
2023-12-24T08:46:04.401Z,4.00
2023-12-24T08:48:32.252Z,3.90
2023-12-24T08:51:02.016Z,3.70
2023-12-24T08:53:29.750Z,3.70
2023-12-24T08:55:57.417Z,3.65
2023-12-24T08:58:26.370Z,3.88
2023-12-24T09:00:54.804Z,4.68
2023-12-24T09:03:22.453Z,3.60
2023-12-24T09:05:50.191Z,3.42
2023-12-24T09:08:16.940Z,3.65
2023-12-24T09:10:44.597Z,4.25
2023-12-24T09:13:12.167Z,3.33
2023-12-24T09:15:41.129Z,4.10
2023-12-24T09:18:08.894Z,3.25
2023-12-24T09:20:36.659Z,3.30
2023-12-24T09:23:03.734Z,3.47
2023-12-24T09:25:31.357Z,4.38
2023-12-24T09:27:59.015Z,3.77
2023-12-24T09:30:26.679Z,3.78
2023-12-24T09:32:56.037Z,3.42
2023-12-24T09:35:23.870Z,3.63
2023-12-24T09:37:51.524Z,4.05
2023-12-24T09:40:19.145Z,4.33
2023-12-24T09:42:46.769Z,3.67
2023-12-24T09:45:14.908Z,3.83
2023-12-24T09:47:42.563Z,3.30
2023-12-24T09:50:11.884Z,3.72
2023-12-24T09:52:39.586Z,3.30
2023-12-24T09:55:08.111Z,3.50
2023-12-24T09:57:35.768Z,4.03
2023-12-24T10:00:05.366Z,3.20
2023-12-24T10:02:34.810Z,3.55
2023-12-24T10:05:04.402Z,3.77
2023-12-24T10:07:38.797Z,5.18
2023-12-24T10:10:08.145Z,3.13
2023-12-24T10:12:35.793Z,3.30
2023-12-24T10:15:03.726Z,3.20
2023-12-24T10:17:32.374Z,3.37
2023-12-24T10:20:01.110Z,3.88
2023-12-24T10:22:28.720Z,3.35
2023-12-24T10:25:03.084Z,3.33
2023-12-24T10:27:31.113Z,3.42
2023-12-24T10:30:11.818Z,3.03
2023-12-24T10:32:40.572Z,3.20
2023-12-24T10:35:09.231Z,3.15
2023-12-24T10:37:37.049Z,3.08
2023-12-24T10:40:11.070Z,3.00
2023-12-24T10:42:39.117Z,3.90
2023-12-24T10:45:07.581Z,4.28
2023-12-24T10:47:36.718Z,4.45
2023-12-24T10:50:05.073Z,3.95
2023-12-24T10:52:32.935Z,3.65
2023-12-24T10:55:03.480Z,3.83
2023-12-24T10:57:42.402Z,4.35
2023-12-24T11:00:12.648Z,3.58
2023-12-24T11:02:45.361Z,3.58
2023-12-24T11:05:13.386Z,4.05
2023-12-24T11:07:49.141Z,4.90
2023-12-24T11:10:40.174Z,3.42
2023-12-24T11:13:45.941Z,3.75
2023-12-24T11:16:42.641Z,3.40
2023-12-24T11:19:24.857Z,3.95
2023-12-24T11:22:10.767Z,3.87
2023-12-24T11:24:51.686Z,4.10
2023-12-24T11:27:22.282Z,3.70
2023-12-24T11:29:50.758Z,3.50
2023-12-24T11:32:39.276Z,4.10
2023-12-24T11:35:08.157Z,3.67
2023-12-24T11:37:37.336Z,3.33
2023-12-24T11:40:09.758Z,4.65
2023-12-24T11:42:42.459Z,5.75
2023-12-24T11:45:19.741Z,5.18
2023-12-24T11:47:49.182Z,4.40
2023-12-24T11:50:16.933Z,4.35
2023-12-24T11:52:45.409Z,4.60
2023-12-24T11:55:16.509Z,3.80
2023-12-24T11:57:44.385Z,4.82
2023-12-24T12:00:15.037Z,4.43
2023-12-24T12:02:44.062Z,3.88
2023-12-24T12:05:13.158Z,4.30
2023-12-24T12:07:40.818Z,5.22
2023-12-24T12:10:09.433Z,3.88
2023-12-24T12:12:37.014Z,5.67
2023-12-24T12:15:05.161Z,7.10
2023-12-24T12:17:32.950Z,5.28
2023-12-24T12:20:00.642Z,4.93
2023-12-24T12:22:29.915Z,4.95
2023-12-24T12:24:57.547Z,4.60
2023-12-24T12:27:25.739Z,4.82
2023-12-24T12:29:53.382Z,4.70
2023-12-24T12:32:20.965Z,4.30
2023-12-24T12:34:48.622Z,3.78
2023-12-24T12:37:16.239Z,4.57
2023-12-24T12:39:45.169Z,4.13
2023-12-24T12:42:12.835Z,3.75
2023-12-24T12:44:40.543Z,3.83
2023-12-24T12:47:08.151Z,3.40
2023-12-24T12:49:35.791Z,5.27
2023-12-24T12:52:03.591Z,4.15
2023-12-24T12:54:31.226Z,3.80
2023-12-24T12:57:00.283Z,3.42
2023-12-24T12:59:28.055Z,3.40
2023-12-24T13:01:56.299Z,4.33
2023-12-24T13:04:27.987Z,3.30
2023-12-24T13:06:59.300Z,5.35
2023-12-24T13:09:27.498Z,5.15
2023-12-24T13:12:07.077Z,4.45
2023-12-24T13:14:35.060Z,4.90
2023-12-24T13:17:10.308Z,4.82
2023-12-24T13:19:39.993Z,5.40
2023-12-24T13:22:07.681Z,4.32
2023-12-24T13:24:35.748Z,3.53
2023-12-24T13:27:05.218Z,4.60
2023-12-24T13:29:36.356Z,3.75
2023-12-24T13:32:04.683Z,4.38
2023-12-24T13:34:33.463Z,7.15
2023-12-24T13:37:01.341Z,3.38
2023-12-24T13:39:29.876Z,3.70
2023-12-24T13:41:57.810Z,5.38
2023-12-24T13:44:25.491Z,3.25
2023-12-24T13:46:54.621Z,4.35
2023-12-24T13:49:22.379Z,4.50
2023-12-24T13:51:50.044Z,4.90
2023-12-24T13:54:17.615Z,3.60
2023-12-24T13:56:45.305Z,3.92
2023-12-24T13:59:13.056Z,4.10
2023-12-24T14:01:42.008Z,5.32
2023-12-24T14:04:11.180Z,4.47
2023-12-24T14:06:39.383Z,4.20
2023-12-24T14:09:07.070Z,4.93
2023-12-24T14:11:34.698Z,4.85
2023-12-24T14:14:02.315Z,4.25
2023-12-24T14:16:31.575Z,5.50
2023-12-24T14:18:59.273Z,4.03
2023-12-24T14:21:28.349Z,4.75
2023-12-24T14:23:55.991Z,4.10
2023-12-24T14:26:23.629Z,5.80
2023-12-24T14:28:51.187Z,4.60
2023-12-24T14:31:18.860Z,4.75
2023-12-24T14:33:46.522Z,5.05
2023-12-24T14:36:14.157Z,4.40
2023-12-24T14:38:43.076Z,6.40
2023-12-24T14:41:10.689Z,5.17
2023-12-24T14:43:38.333Z,4.40
2023-12-24T14:46:06.186Z,6.30
2023-12-24T14:48:37.183Z,6.82
2023-12-24T14:51:10.029Z,6.40
2023-12-24T14:53:38.413Z,5.80
2023-12-24T14:56:11.401Z,5.00
2023-12-24T14:58:39.077Z,5.53
2023-12-24T15:01:09.701Z,6.20
2023-12-24T15:03:37.427Z,6.97
2023-12-24T15:06:06.226Z,6.80
2023-12-24T15:08:33.921Z,5.13
2023-12-24T15:11:02.060Z,9.15
2023-12-24T15:13:31.046Z,3.92
2023-12-24T15:15:58.594Z,4.65
2023-12-24T15:18:26.312Z,5.10
2023-12-24T15:20:54.142Z,4.80
2023-12-24T15:23:22.642Z,7.53
2023-12-24T15:25:50.272Z,6.90
2023-12-24T15:28:20.367Z,6.10
2023-12-24T15:30:50.154Z,5.70
2023-12-24T15:33:17.961Z,6.10
2023-12-24T15:35:45.855Z,5.47
2023-12-24T15:38:13.453Z,3.97
2023-12-24T15:40:41.064Z,7.20
2023-12-24T15:43:08.700Z,5.30
2023-12-24T15:45:39.708Z,5.13
2023-12-24T15:48:10.359Z,4.40
2023-12-24T15:50:38.196Z,5.15
2023-12-24T15:53:05.789Z,5.03
2023-12-24T15:55:33.555Z,4.20
2023-12-24T15:58:01.109Z,4.65
2023-12-24T16:00:29.049Z,3.70
2023-12-24T16:02:56.904Z,4.00
2023-12-24T16:05:27.966Z,6.00
2023-12-24T16:07:55.659Z,3.70
2023-12-24T16:10:23.394Z,5.20
2023-12-24T16:12:52.544Z,3.45
2023-12-24T16:15:20.314Z,3.40
2023-12-24T16:17:48.132Z,3.50
2023-12-24T16:20:16.993Z,3.40
2023-12-24T16:22:45.967Z,3.25
2023-12-24T16:25:13.908Z,4.75
2023-12-24T16:27:41.466Z,3.70
2023-12-24T16:30:10.374Z,5.80
2023-12-24T16:32:38.314Z,4.20
2023-12-24T16:35:06.631Z,3.55
2023-12-24T16:37:34.292Z,4.10
2023-12-24T16:40:03.642Z,3.67
2023-12-24T16:42:31.221Z,5.10
2023-12-24T16:44:58.923Z,3.50
2023-12-24T16:47:26.646Z,3.90
2023-12-24T16:49:54.544Z,3.75
2023-12-24T16:52:22.158Z,4.53
2023-12-24T16:54:49.781Z,3.75
2023-12-24T16:57:18.791Z,3.47
2023-12-24T16:59:46.415Z,3.85
2023-12-24T17:02:14.116Z,4.15
2023-12-24T17:04:41.784Z,4.63
2023-12-24T17:07:09.444Z,3.95
2023-12-24T17:09:37.834Z,4.83
2023-12-24T17:12:07.113Z,3.95
2023-12-24T17:14:36.061Z,4.75
2023-12-24T17:17:03.826Z,6.97
2023-12-24T17:19:31.537Z,4.45
2023-12-24T17:21:59.135Z,4.80
2023-12-24T17:24:26.722Z,5.18
2023-12-24T17:26:54.467Z,6.00
2023-12-24T17:29:22.433Z,4.57
2023-12-24T17:31:52.549Z,6.43
2023-12-24T17:34:20.275Z,5.63
2023-12-24T17:36:47.853Z,5.25
2023-12-24T17:39:16.046Z,5.80
2023-12-24T17:41:43.883Z,6.78
2023-12-24T17:44:11.556Z,6.82
2023-12-24T17:46:39.215Z,4.70
2023-12-24T17:49:08.991Z,5.47
2023-12-24T17:51:40.150Z,5.93
2023-12-24T17:54:07.813Z,6.30
2023-12-24T17:56:35.715Z,4.97
2023-12-24T17:59:03.348Z,6.07
2023-12-24T18:01:30.924Z,5.97
2023-12-24T18:03:58.571Z,6.57
2023-12-24T18:06:27.575Z,6.20
2023-12-24T18:08:55.256Z,5.07
2023-12-24T18:11:23.027Z,7.40
2023-12-24T18:13:50.652Z,5.80
2023-12-24T18:16:18.269Z,7.65
2023-12-24T18:18:46.237Z,4.68
2023-12-24T18:21:13.870Z,5.20
2023-12-24T18:23:44.467Z,5.37
2023-12-24T18:26:16.026Z,6.32
2023-12-24T18:28:43.984Z,7.47
2023-12-24T18:31:11.845Z,5.13
2023-12-24T18:33:40.119Z,4.00
2023-12-24T18:36:08.132Z,4.33
2023-12-24T18:38:37.218Z,5.53
2023-12-24T18:41:06.425Z,5.43
2023-12-24T18:43:34.048Z,4.28
2023-12-24T18:46:05.018Z,6.22
2023-12-24T18:48:32.769Z,5.30
2023-12-24T18:51:00.609Z,6.38
2023-12-24T18:53:28.326Z,5.10
2023-12-24T18:55:56.106Z,7.35
2023-12-24T18:58:25.016Z,6.57
2023-12-24T19:00:52.625Z,3.97
2023-12-24T19:03:20.360Z,4.97
2023-12-24T19:05:47.993Z,5.85
2023-12-24T19:08:15.628Z,6.20
2023-12-24T19:10:43.673Z,6.15
2023-12-24T19:13:11.318Z,6.97
2023-12-24T19:15:41.492Z,5.47
2023-12-24T19:18:09.482Z,6.05
2023-12-24T19:20:37.222Z,4.45
2023-12-24T19:23:05.243Z,5.97
2023-12-24T19:25:32.960Z,6.47
2023-12-24T19:28:00.566Z,7.30
2023-12-24T19:30:28.325Z,6.00
2023-12-24T19:32:57.568Z,5.03
2023-12-24T19:35:25.584Z,7.60
2023-12-24T19:37:53.249Z,5.93
2023-12-24T19:40:20.876Z,7.38
2023-12-24T19:42:48.481Z,7.00
2023-12-24T19:45:16.171Z,8.40
2023-12-24T19:47:43.989Z,5.95
2023-12-24T19:50:13.323Z,10.20
2023-12-24T19:52:41.053Z,7.40
2023-12-24T19:55:09.494Z,4.95
2023-12-24T19:57:37.223Z,6.22
2023-12-24T20:00:05.402Z,7.63
2023-12-24T20:02:40.377Z,6.27
2023-12-24T20:05:08.780Z,10.13
2023-12-24T20:07:37.718Z,8.05
2023-12-24T20:10:06.128Z,7.88
2023-12-24T20:12:34.097Z,7.40
2023-12-24T20:15:01.961Z,10.43
2023-12-24T20:17:29.565Z,7.78
2023-12-24T20:19:57.572Z,7.18
2023-12-24T20:22:25.613Z,9.05
2023-12-24T20:24:54.864Z,8.27
2023-12-24T20:27:23.020Z,9.20
2023-12-24T20:29:51.915Z,8.23
2023-12-24T20:32:19.984Z,10.43
2023-12-24T20:34:48.194Z,12.63
2023-12-24T20:37:15.874Z,12.75
2023-12-24T20:39:43.645Z,9.90
2023-12-24T20:42:12.658Z,8.90
2023-12-24T20:44:41.309Z,8.10
2023-12-24T20:47:09.472Z,8.93
2023-12-24T20:49:38.027Z,10.80
2023-12-24T20:52:07.999Z,10.67
2023-12-24T20:54:35.616Z,12.25
2023-12-24T20:57:03.904Z,10.30
2023-12-24T20:59:32.962Z,13.35
2023-12-24T21:02:00.604Z,6.50
2023-12-24T21:04:28.192Z,6.77
2023-12-24T21:06:55.854Z,7.70
2023-12-24T21:09:23.446Z,7.30
2023-12-24T21:11:51.151Z,11.93
2023-12-24T21:14:18.840Z,6.82
2023-12-24T21:16:47.825Z,6.67
2023-12-24T21:19:15.438Z,9.25
2023-12-24T21:21:43.269Z,6.97
2023-12-24T21:24:10.854Z,6.55
2023-12-24T21:26:39.474Z,7.75
2023-12-24T21:29:07.277Z,6.87
2023-12-24T21:31:35.077Z,8.35
2023-12-24T21:34:04.234Z,6.90
2023-12-24T21:36:31.939Z,9.70
2023-12-24T21:38:59.655Z,9.43
2023-12-24T21:41:27.578Z,9.87
2023-12-24T21:43:55.690Z,10.88
2023-12-24T21:46:23.882Z,11.00
2023-12-24T21:48:51.626Z,10.65
2023-12-24T21:51:21.005Z,11.70
2023-12-24T21:53:48.609Z,9.77
2023-12-24T21:56:16.358Z,12.85
2023-12-24T21:58:44.046Z,10.65
2023-12-24T22:01:18.439Z,7.97
2023-12-24T22:03:49.983Z,10.27
2023-12-24T22:06:17.822Z,10.93
2023-12-24T22:08:46.852Z,11.32
2023-12-24T22:11:14.648Z,10.73
2023-12-24T22:13:42.363Z,9.25
2023-12-24T22:16:13.973Z,12.00
2023-12-24T22:18:41.839Z,12.80
2023-12-24T22:21:09.943Z,12.38
2023-12-24T22:23:39.452Z,9.73
2023-12-24T22:26:11.994Z,10.40
2023-12-24T22:28:40.281Z,11.52
2023-12-24T22:31:08.750Z,8.33
2023-12-24T22:33:38.579Z,12.45
2023-12-24T22:36:07.182Z,11.05
2023-12-24T22:38:34.898Z,6.53
2023-12-24T22:41:02.445Z,11.85
2023-12-24T22:43:31.399Z,6.70
2023-12-24T22:45:59.042Z,9.88
2023-12-24T22:48:26.628Z,9.15
2023-12-24T22:50:54.298Z,7.82
2023-12-24T22:53:22.089Z,10.23
2023-12-24T22:55:50.791Z,10.20
2023-12-24T22:58:18.506Z,11.63
2023-12-24T23:00:47.866Z,6.50
2023-12-24T23:03:15.812Z,11.43
2023-12-24T23:05:44.021Z,12.85
2023-12-24T23:08:11.972Z,12.43
2023-12-24T23:10:39.898Z,15.45
2023-12-24T23:13:07.613Z,10.65
2023-12-24T23:15:35.685Z,12.95
2023-12-24T23:18:05.314Z,11.43
2023-12-24T23:20:33.288Z,10.60
2023-12-24T23:23:00.879Z,15.70
2023-12-24T23:25:28.629Z,15.90
2023-12-24T23:27:56.473Z,14.73
2023-12-24T23:30:24.330Z,15.85
2023-12-24T23:32:52.153Z,9.80
2023-12-24T23:35:21.833Z,8.32
2023-12-24T23:37:49.629Z,15.38
2023-12-24T23:40:17.326Z,9.80
2023-12-24T23:42:44.860Z,11.77
2023-12-24T23:45:12.447Z,15.60
2023-12-24T23:47:40.631Z,12.30
2023-12-24T23:50:09.018Z,12.82
2023-12-24T23:52:37.904Z,10.27
2023-12-24T23:55:06.285Z,12.07
2023-12-24T23:57:33.846Z,9.23
